createdAt,value
2023-04-01T00:00:56.765Z,1.000
2023-04-01T00:01:55.928Z,0.900
2023-04-01T00:02:56.750Z,0.900
2023-04-01T00:03:57.135Z,0.900
2023-04-01T00:04:56.884Z,1.100
2023-04-01T00:06:56.392Z,1.200
2023-04-01T00:07:56.640Z,1.000
2023-04-01T00:09:55.940Z,1.100
2023-04-01T00:10:56.194Z,0.900
2023-04-01T00:11:56.502Z,0.800
2023-04-01T00:12:56.764Z,0.900
2023-04-01T00:14:56.151Z,0.900
2023-04-01T00:15:56.641Z,1.100
2023-04-01T00:16:56.267Z,1.100
2023-04-01T00:17:56.805Z,1.200
2023-04-01T00:18:56.175Z,1.000
2023-04-01T00:19:56.389Z,1.000
2023-04-01T00:20:56.659Z,1.300
2023-04-01T00:21:55.851Z,0.900
2023-04-01T00:22:55.976Z,1.100
2023-04-01T00:23:56.159Z,1.200
2023-04-01T00:24:56.642Z,1.000
2023-04-01T00:25:56.872Z,1.200
2023-04-01T00:26:56.010Z,1.200
2023-04-01T00:27:56.165Z,1.100
2023-04-01T00:28:56.346Z,1.000
2023-04-01T00:29:56.523Z,1.200
2023-04-01T00:30:56.731Z,1.300
2023-04-01T00:31:56.117Z,1.200
2023-04-01T00:32:56.786Z,1.200
2023-04-01T00:34:56.391Z,1.100
2023-04-01T00:35:56.736Z,1.200
2023-04-01T00:36:56.165Z,1.100
2023-04-01T00:37:56.382Z,1.000
2023-04-01T00:38:56.652Z,1.200
2023-04-01T00:39:55.873Z,0.900
2023-04-01T00:40:56.152Z,1.200
2023-04-01T00:41:56.364Z,1.100
2023-04-01T00:42:56.527Z,1.200
2023-04-01T00:44:56.080Z,1.000
2023-04-01T00:45:56.393Z,1.000
2023-04-01T00:46:56.692Z,1.200
2023-04-01T00:47:56.276Z,1.000
2023-04-01T00:48:56.722Z,1.000
2023-04-01T00:49:55.927Z,0.900
2023-04-01T00:50:56.386Z,1.100
2023-04-01T00:51:56.551Z,1.000
2023-04-01T00:52:56.665Z,0.800
2023-04-01T00:54:55.987Z,1.000
2023-04-01T00:55:56.167Z,1.000
2023-04-01T00:56:56.457Z,0.900
2023-04-01T00:57:56.768Z,0.900
2023-04-01T00:58:55.924Z,1.000
2023-04-01T00:59:56.159Z,1.000
2023-04-01T01:00:56.583Z,0.700
2023-04-01T01:01:56.012Z,0.800
2023-04-01T01:02:56.701Z,0.900
2023-04-01T01:04:56.095Z,0.800
2023-04-01T01:06:03.040Z,1.000
2023-04-01T01:06:56.211Z,1.000
2023-04-01T01:07:56.456Z,1.000
2023-04-01T01:08:56.641Z,0.700
2023-04-01T01:09:56.808Z,0.700
2023-04-01T01:10:56.112Z,1.000
2023-04-01T01:11:59.571Z,1.000
2023-04-01T01:12:56.800Z,0.900
2023-04-01T01:14:56.356Z,0.900
2023-04-01T01:15:56.502Z,0.800
2023-04-01T01:16:56.941Z,1.000
2023-04-01T01:17:56.943Z,0.800
2023-04-01T01:18:56.315Z,1.000
2023-04-01T01:19:56.632Z,0.900
2023-04-01T01:20:59.895Z,0.700
2023-04-01T01:21:56.072Z,0.900
2023-04-01T01:22:56.236Z,0.700
2023-04-01T01:23:56.496Z,0.800
2023-04-01T01:24:56.773Z,0.800
2023-04-01T01:25:55.962Z,0.800
2023-04-01T01:26:56.139Z,0.900
2023-04-01T01:27:56.336Z,0.800
2023-04-01T01:28:56.674Z,1.000
2023-04-01T01:29:55.865Z,0.900
2023-04-01T01:30:56.209Z,0.800
2023-04-01T01:31:56.540Z,0.600
2023-04-01T01:32:57.429Z,0.900
2023-04-01T01:33:57.980Z,0.800
2023-04-01T01:34:57.512Z,0.700
2023-04-01T01:35:56.372Z,1.000
2023-04-01T01:36:56.675Z,1.000
2023-04-01T01:37:55.934Z,0.600
2023-04-01T01:38:56.182Z,0.900
2023-04-01T01:39:56.500Z,0.900
2023-04-01T01:40:56.802Z,0.800
2023-04-01T01:41:55.956Z,0.800
2023-04-01T01:42:56.277Z,0.800
2023-04-01T01:43:56.520Z,0.900
2023-04-01T01:44:56.715Z,0.800
2023-04-01T01:45:56.110Z,0.700
2023-04-01T01:46:56.483Z,1.100
2023-04-01T01:47:57.027Z,0.800
2023-04-01T01:49:56.596Z,0.700
2023-04-01T01:50:55.871Z,0.900
2023-04-01T01:51:56.243Z,0.700
2023-04-01T01:52:56.422Z,0.600
2023-04-01T01:53:56.620Z,0.900
2023-04-01T01:54:56.842Z,0.700
2023-04-01T01:55:56.103Z,0.900
2023-04-01T01:56:56.288Z,0.700
2023-04-01T01:57:56.541Z,1.000
2023-04-01T01:58:56.798Z,0.900
2023-04-01T01:59:56.008Z,0.800
2023-04-01T02:00:56.304Z,0.800
2023-04-01T02:01:56.783Z,1.000
2023-04-01T02:02:56.577Z,0.900
2023-04-01T02:03:56.813Z,0.800
2023-04-01T02:04:56.146Z,0.800
2023-04-01T02:05:56.614Z,0.600
2023-04-01T02:06:56.756Z,0.700
2023-04-01T02:07:55.960Z,0.700
2023-04-01T02:08:56.184Z,0.700
2023-04-01T02:09:56.332Z,0.800
2023-04-01T02:10:56.556Z,0.900
2023-04-01T02:11:56.881Z,0.900
2023-04-01T02:12:56.203Z,1.000
2023-04-01T02:13:56.415Z,1.000
2023-04-01T02:14:56.644Z,0.800
2023-04-01T02:15:55.930Z,0.700
2023-04-01T02:16:56.256Z,0.900
2023-04-01T02:17:56.866Z,0.900
2023-04-01T02:18:56.249Z,1.200
2023-04-01T02:19:56.571Z,0.800
2023-04-01T02:20:56.759Z,0.800
2023-04-01T02:21:55.904Z,0.700
2023-04-01T02:22:56.421Z,0.900
2023-04-01T02:24:56.004Z,0.800
2023-04-01T02:25:56.408Z,0.900
2023-04-01T02:26:56.712Z,0.900
2023-04-01T02:27:56.077Z,1.000
2023-04-01T02:28:56.406Z,0.700
2023-04-01T02:29:56.730Z,0.800
2023-04-01T02:30:55.895Z,0.700
2023-04-01T02:31:56.224Z,1.000
2023-04-01T02:34:56.298Z,0.600
2023-04-01T02:35:56.714Z,0.800
2023-04-01T02:36:56.280Z,0.600
2023-04-01T02:37:56.575Z,0.900
2023-04-01T02:38:56.768Z,0.700
2023-04-01T02:39:55.914Z,0.700
2023-04-01T02:40:56.267Z,1.000
2023-04-01T02:41:56.519Z,1.000
2023-04-01T02:42:56.729Z,1.000
2023-04-01T02:43:55.944Z,0.900
2023-04-01T02:44:56.156Z,0.700
2023-04-01T02:45:56.868Z,0.600
2023-04-01T02:46:56.134Z,0.800
2023-04-01T02:47:56.728Z,0.800
2023-04-01T02:48:56.119Z,0.800
2023-04-01T02:49:56.433Z,0.800
2023-04-01T02:50:56.882Z,0.700
2023-04-01T02:51:56.223Z,0.900
2023-04-01T02:52:56.544Z,0.800
2023-04-01T02:53:56.828Z,0.800
2023-04-01T02:54:56.354Z,0.700
2023-04-01T02:55:56.656Z,0.700
2023-04-01T02:56:56.048Z,0.800
2023-04-01T02:57:56.500Z,0.800
2023-04-01T02:58:56.997Z,1.000
2023-04-01T02:59:56.232Z,0.700
2023-04-01T03:00:56.576Z,0.900
2023-04-01T03:01:56.042Z,0.700
2023-04-01T03:02:56.928Z,0.800
2023-04-01T03:03:56.793Z,0.800
2023-04-01T03:04:56.111Z,0.900
2023-04-01T03:05:56.504Z,0.500
2023-04-01T03:06:56.702Z,0.700
2023-04-01T03:07:55.916Z,0.800
2023-04-01T03:08:56.098Z,0.500
2023-04-01T03:09:56.383Z,0.900
2023-04-01T03:10:57.337Z,0.700
2023-04-01T03:12:56.712Z,0.700
2023-04-01T03:13:55.995Z,0.600
2023-04-01T03:14:56.278Z,0.800
2023-04-01T03:15:56.195Z,0.700
2023-04-01T03:16:56.588Z,1.000
2023-04-01T03:17:56.403Z,0.900
2023-04-01T03:18:56.774Z,0.800
2023-04-01T03:19:56.056Z,0.800
2023-04-01T03:20:56.339Z,0.800
2023-04-01T03:21:56.587Z,0.700
2023-04-01T03:22:58.932Z,0.700
2023-04-01T03:23:56.241Z,0.600
2023-04-01T03:24:56.601Z,0.800
2023-04-01T03:25:56.880Z,0.700
2023-04-01T03:27:56.419Z,0.600
2023-04-01T03:28:56.754Z,0.800
2023-04-01T03:29:56.031Z,0.800
2023-04-01T03:30:56.642Z,0.800
2023-04-01T03:31:56.997Z,0.700
2023-04-01T03:32:56.347Z,0.900
2023-04-01T03:33:56.809Z,0.800
2023-04-01T03:35:56.326Z,0.600
2023-04-01T03:36:56.787Z,1.000
2023-04-01T03:37:55.974Z,0.700
2023-04-01T03:38:56.126Z,0.700
2023-04-01T03:39:58.943Z,0.600
2023-04-01T03:40:56.114Z,0.800
2023-04-01T03:41:56.268Z,1.000
2023-04-01T03:42:56.688Z,0.700
2023-04-01T03:43:56.086Z,0.800
2023-04-01T03:44:56.316Z,0.700
2023-04-01T03:45:56.977Z,0.700
2023-04-01T03:46:56.320Z,0.600
2023-04-01T03:47:56.601Z,0.500
2023-04-01T03:48:56.140Z,1.000
2023-04-01T03:49:56.288Z,0.700
2023-04-01T03:50:56.545Z,0.600
2023-04-01T03:51:56.834Z,0.800
2023-04-01T03:52:56.021Z,0.700
2023-04-01T03:53:56.252Z,0.800
2023-04-01T03:54:56.404Z,0.700
2023-04-01T03:55:56.071Z,0.900
2023-04-01T03:56:56.431Z,1.000
2023-04-01T03:57:56.747Z,0.600
2023-04-01T03:58:56.034Z,0.700
2023-04-01T03:59:56.274Z,0.600
2023-04-01T04:00:56.480Z,0.800
2023-04-01T04:01:56.711Z,0.700
2023-04-01T04:02:56.280Z,0.800
2023-04-01T04:03:56.063Z,0.700
2023-04-01T04:04:56.733Z,1.000
2023-04-01T04:05:55.859Z,0.500
2023-04-01T04:06:56.065Z,0.800
2023-04-01T04:07:56.249Z,0.800
2023-04-01T04:08:56.545Z,0.900
2023-04-01T04:09:56.706Z,0.600
2023-04-01T04:10:55.868Z,0.900
2023-04-01T04:11:56.303Z,0.900
2023-04-01T04:12:56.642Z,0.700
2023-04-01T04:13:56.642Z,0.700
2023-04-01T04:14:56.463Z,0.800
2023-04-01T04:15:56.730Z,0.800
2023-04-01T04:16:55.975Z,0.800
2023-04-01T04:17:56.489Z,0.800
2023-04-01T04:18:56.839Z,0.800
2023-04-01T04:19:55.958Z,0.700
2023-04-01T04:20:56.107Z,0.600
2023-04-01T04:21:56.331Z,1.000
2023-04-01T04:22:56.542Z,0.800
2023-04-01T04:23:56.761Z,0.700
2023-04-01T04:24:55.902Z,0.500
2023-04-01T04:25:56.278Z,0.700
2023-04-01T04:26:56.501Z,0.700
2023-04-01T04:27:56.704Z,0.700
2023-04-01T04:28:55.875Z,0.800
2023-04-01T04:29:56.139Z,0.700
2023-04-01T04:30:56.365Z,0.800
2023-04-01T04:31:56.779Z,0.700
2023-04-01T04:32:56.392Z,0.900
2023-04-01T04:33:56.653Z,1.000
2023-04-01T04:34:55.893Z,1.000
2023-04-01T04:35:56.228Z,0.800
2023-04-01T04:36:56.536Z,0.800
2023-04-01T04:37:56.754Z,0.700
2023-04-01T04:39:56.028Z,0.800
2023-04-01T04:40:56.207Z,0.800
2023-04-01T04:41:56.591Z,0.700
2023-04-01T04:42:56.748Z,0.700
2023-04-01T04:44:56.223Z,0.700
2023-04-01T04:45:56.404Z,0.900
2023-04-01T04:46:58.302Z,0.800
2023-04-01T04:47:56.997Z,0.600
2023-04-01T04:48:56.205Z,0.700
2023-04-01T04:49:56.361Z,0.700
2023-04-01T04:50:56.564Z,0.800
2023-04-01T04:51:55.879Z,0.700
2023-04-01T04:52:56.147Z,0.800
2023-04-01T04:53:56.372Z,0.800
2023-04-01T04:54:56.641Z,0.700
2023-04-01T04:55:55.860Z,0.700
2023-04-01T04:56:56.061Z,0.800
2023-04-01T04:57:56.484Z,0.900
2023-04-01T04:58:56.704Z,0.700
2023-04-01T04:59:55.991Z,0.600
2023-04-01T05:00:56.383Z,0.800
2023-04-01T05:01:56.930Z,0.800
2023-04-01T05:02:56.899Z,0.500
2023-04-01T05:03:56.644Z,0.600
2023-04-01T05:05:55.974Z,0.700
2023-04-01T05:06:56.674Z,0.900
2023-04-01T05:07:55.803Z,0.700
2023-04-01T05:08:55.950Z,0.600
2023-04-01T05:10:56.402Z,0.600
2023-04-01T05:11:56.603Z,0.600
2023-04-01T05:12:56.779Z,0.600
2023-04-01T05:13:55.973Z,0.500
2023-04-01T05:14:56.325Z,0.600
2023-04-01T05:15:56.505Z,0.700
2023-04-01T05:16:56.967Z,0.700
2023-04-01T05:17:56.604Z,0.800
2023-04-01T05:18:55.856Z,0.700
2023-04-01T05:19:56.166Z,0.500
2023-04-01T05:20:56.427Z,0.600
2023-04-01T05:21:56.650Z,0.700
2023-04-01T05:22:56.825Z,0.500
2023-04-01T05:23:56.052Z,0.700
2023-04-01T05:24:56.297Z,0.900
2023-04-01T05:25:56.654Z,0.600
2023-04-01T05:26:57.081Z,0.600
2023-04-01T05:27:56.220Z,0.700
2023-04-01T05:28:56.513Z,0.800
2023-04-01T05:29:56.732Z,0.700
2023-04-01T05:31:56.190Z,0.900
2023-04-01T05:32:56.567Z,0.600
2023-04-01T05:33:55.912Z,0.600
2023-04-01T05:34:56.198Z,0.700
2023-04-01T05:35:56.725Z,0.700
2023-04-01T05:36:56.153Z,0.700
2023-04-01T05:37:56.502Z,0.800
2023-04-01T05:38:56.713Z,0.500
2023-04-01T05:39:55.857Z,0.700
2023-04-01T05:40:56.064Z,0.800
2023-04-01T05:41:56.323Z,0.800
2023-04-01T05:42:56.472Z,1.000
2023-04-01T05:43:56.688Z,0.700
2023-04-01T05:44:55.820Z,0.800
2023-04-01T05:45:56.064Z,0.700
2023-04-01T05:46:56.759Z,0.700
2023-04-01T05:47:56.026Z,0.600
2023-04-01T05:48:56.404Z,0.600
2023-04-01T05:49:56.716Z,0.700
2023-04-01T05:51:56.094Z,0.800
2023-04-01T05:52:56.448Z,0.800
2023-04-01T05:53:56.688Z,0.700
2023-04-01T05:54:55.835Z,0.800
2023-04-01T05:55:56.108Z,0.800
2023-04-01T05:56:56.353Z,0.900
2023-04-01T05:57:56.817Z,1.400
2023-04-01T05:58:55.983Z,3.300
2023-04-01T05:59:56.384Z,2.000
2023-04-01T06:01:08.447Z,6.100
2023-04-01T06:02:59.796Z,4.900
2023-04-01T06:03:59.871Z,5.700
2023-04-01T06:05:58.899Z,2.200
2023-04-01T06:06:59.054Z,0.900
2023-04-01T06:07:59.420Z,0.700
2023-04-01T06:08:59.623Z,0.700
2023-04-01T06:09:58.848Z,0.600
2023-04-01T06:10:59.003Z,0.600
2023-04-01T06:11:59.219Z,0.800
2023-04-01T06:12:59.481Z,0.700
2023-04-01T06:13:59.632Z,0.600
2023-04-01T06:14:58.872Z,0.800
2023-04-01T06:15:59.199Z,0.600
2023-04-01T06:16:59.733Z,0.800
2023-04-01T06:18:01.344Z,0.500
2023-04-01T06:18:59.633Z,1.100
2023-04-01T06:19:59.866Z,0.900
2023-04-01T06:20:59.008Z,0.800
2023-04-01T06:21:59.284Z,0.700
2023-04-01T06:22:59.483Z,0.700
2023-04-01T06:23:59.695Z,0.600
2023-04-01T06:24:58.829Z,0.700
2023-04-01T06:25:59.034Z,0.400
2023-04-01T06:26:59.280Z,0.600
2023-04-01T06:27:59.534Z,0.600
2023-04-01T06:28:59.787Z,0.700
2023-04-01T06:29:58.934Z,0.700
2023-04-01T06:30:59.092Z,0.500
2023-04-01T06:31:59.614Z,0.700
2023-04-01T06:32:59.197Z,0.600
2023-04-01T06:33:59.547Z,0.700
2023-04-01T06:34:59.750Z,0.700
2023-04-01T06:35:59.291Z,0.600
2023-04-01T06:36:59.747Z,0.600
2023-04-01T06:37:58.982Z,0.600
2023-04-01T06:38:59.144Z,0.500
2023-04-01T06:39:59.444Z,0.500
2023-04-01T06:40:59.692Z,0.700
2023-04-01T06:41:58.816Z,0.600
2023-04-01T06:42:58.982Z,0.500
2023-04-01T06:43:59.108Z,0.600
2023-04-01T06:44:59.291Z,0.400
2023-04-01T06:45:59.838Z,0.700
2023-04-01T06:48:01.276Z,0.600
2023-04-01T06:49:59.735Z,0.700
2023-04-01T06:50:58.820Z,0.700
2023-04-01T06:51:58.980Z,0.500
2023-04-01T06:52:59.177Z,0.600
2023-04-01T06:53:59.521Z,0.500
2023-04-01T06:54:58.931Z,0.500
2023-04-01T06:55:59.070Z,0.500
2023-04-01T06:56:59.425Z,0.700
2023-04-01T06:57:59.888Z,0.700
2023-04-01T06:58:59.057Z,0.800
2023-04-01T06:59:59.246Z,0.500
2023-04-01T07:00:59.568Z,0.500
2023-04-01T07:01:58.999Z,0.600
2023-04-01T07:02:59.374Z,0.400
2023-04-01T07:03:59.521Z,0.700
2023-04-01T07:04:59.941Z,0.600
2023-04-01T07:05:59.035Z,0.800
2023-04-01T07:06:59.151Z,0.500
2023-04-01T07:07:59.538Z,0.600
2023-04-01T07:08:59.755Z,0.600
2023-04-01T07:09:59.296Z,0.500
2023-04-01T07:10:59.656Z,0.500
2023-04-01T07:12:59.215Z,0.600
2023-04-01T07:13:59.499Z,0.600
2023-04-01T07:14:59.706Z,0.400
2023-04-01T07:15:58.952Z,0.400
2023-04-01T07:16:59.437Z,0.400
2023-04-01T07:17:58.909Z,0.600
2023-04-01T07:18:59.340Z,0.800
2023-04-01T07:19:59.600Z,0.500
2023-04-01T07:20:59.235Z,0.600
2023-04-01T07:21:59.449Z,0.700
2023-04-01T07:22:58.956Z,0.600
2023-04-01T07:23:59.361Z,0.700
2023-04-01T07:24:59.595Z,0.500
2023-04-01T07:25:59.933Z,0.700
2023-04-01T07:26:59.802Z,0.700
2023-04-01T07:27:59.005Z,0.600
2023-04-01T07:28:59.171Z,0.500
2023-04-01T07:29:59.387Z,0.500
2023-04-01T07:30:59.761Z,0.500
2023-04-01T07:31:58.985Z,0.600
2023-04-01T07:32:59.187Z,0.600
2023-04-01T07:33:59.555Z,0.600
2023-04-01T07:34:59.021Z,0.700
2023-04-01T07:35:59.393Z,0.500
2023-04-01T07:36:59.632Z,0.500
2023-04-01T07:37:59.849Z,0.700
2023-04-01T07:38:59.327Z,0.600
2023-04-01T07:39:59.666Z,0.500
2023-04-01T07:40:58.822Z,0.700
2023-04-01T07:41:59.196Z,0.700
2023-04-01T07:42:59.324Z,0.700
2023-04-01T07:43:59.579Z,0.600
2023-04-01T07:44:59.755Z,0.800
2023-04-01T07:45:58.894Z,0.700
2023-04-01T07:46:59.672Z,0.800
2023-04-01T07:47:58.910Z,0.700
2023-04-01T07:48:59.723Z,0.600
2023-04-01T07:49:58.824Z,0.800
2023-04-01T07:51:00.156Z,0.700
2023-04-01T07:52:59.439Z,0.600
2023-04-01T07:53:59.612Z,0.700
2023-04-01T07:54:59.815Z,0.800
2023-04-01T07:55:58.961Z,0.600
2023-04-01T07:57:04.139Z,0.800
2023-04-01T07:58:00.449Z,0.700
2023-04-01T07:59:58.965Z,0.600
2023-04-01T08:00:59.116Z,0.600
2023-04-01T08:01:59.337Z,0.700
2023-04-01T08:03:00.058Z,0.700
2023-04-01T08:04:00.392Z,0.700
2023-04-01T08:06:01.305Z,0.600
2023-04-01T08:06:59.656Z,0.700
2023-04-01T08:08:58.925Z,0.700
2023-04-01T08:09:59.079Z,0.600
2023-04-01T08:10:59.285Z,0.800
2023-04-01T08:11:59.679Z,0.600
2023-04-01T08:13:59.080Z,0.500
2023-04-01T08:14:59.214Z,0.700
2023-04-01T08:15:59.486Z,0.600
2023-04-01T08:16:59.854Z,0.700
2023-04-01T08:17:59.105Z,0.500
2023-04-01T08:18:59.483Z,0.500
2023-04-01T08:19:59.690Z,0.500
2023-04-01T08:20:58.812Z,0.500
2023-04-01T08:21:58.955Z,0.600
2023-04-01T08:22:59.123Z,0.500
2023-04-01T08:23:59.356Z,0.700
2023-04-01T08:25:04.647Z,0.500
2023-04-01T08:25:59.816Z,0.500
2023-04-01T08:27:59.249Z,0.400
2023-04-01T08:28:59.554Z,0.600
2023-04-01T08:29:59.725Z,0.600
2023-04-01T08:30:58.913Z,0.700
2023-04-01T08:31:59.304Z,0.600
2023-04-01T08:33:00.046Z,0.900
2023-04-01T08:33:59.436Z,0.500
2023-04-01T08:34:59.646Z,0.600
2023-04-01T08:35:59.157Z,0.400
2023-04-01T08:36:59.425Z,0.700
2023-04-01T08:37:59.591Z,0.700
2023-04-01T08:38:59.799Z,0.800
2023-04-01T08:39:58.940Z,0.500
2023-04-01T08:40:59.067Z,0.600
2023-04-01T08:41:59.303Z,0.500
2023-04-01T08:42:59.495Z,0.800
2023-04-01T08:43:59.659Z,0.500
2023-04-01T08:44:58.875Z,0.700
2023-04-01T08:46:59.817Z,0.500
2023-04-01T08:47:59.150Z,0.400
2023-04-01T08:48:59.580Z,0.400
2023-04-01T08:49:59.699Z,0.300
2023-04-01T08:50:58.831Z,0.400
2023-04-01T08:51:59.019Z,0.300
2023-04-01T08:52:59.172Z,0.400
2023-04-01T08:53:59.335Z,0.900
2023-04-01T08:54:59.520Z,0.700
2023-04-01T08:55:59.752Z,1.000
2023-04-01T08:56:58.874Z,0.600
2023-04-01T08:57:59.216Z,0.600
2023-04-01T08:58:59.388Z,0.400
2023-04-01T09:00:00.433Z,0.600
2023-04-01T09:00:59.664Z,0.500
2023-04-01T09:01:58.953Z,0.700
2023-04-01T09:02:59.701Z,0.500
2023-04-01T09:04:00.332Z,0.400
2023-04-01T09:04:58.879Z,0.500
2023-04-01T09:05:59.020Z,0.600
2023-04-01T09:06:59.248Z,0.500
2023-04-01T09:07:59.463Z,0.600
2023-04-01T09:08:59.655Z,0.600
2023-04-01T09:09:58.788Z,0.800
2023-04-01T09:10:59.051Z,0.700
2023-04-01T09:11:59.387Z,0.300
2023-04-01T09:12:59.723Z,0.400
2023-04-01T09:13:58.888Z,0.300
2023-04-01T09:14:59.084Z,0.400
2023-04-01T09:15:59.543Z,0.300
2023-04-01T09:16:58.895Z,0.300
2023-04-01T09:17:59.227Z,0.300
2023-04-01T09:18:59.512Z,0.300
2023-04-01T09:19:59.654Z,0.700
2023-04-01T09:20:58.849Z,0.400
2023-04-01T09:21:59.031Z,0.300
2023-04-01T09:22:59.341Z,0.400
2023-04-01T09:23:59.525Z,0.400
2023-04-01T09:24:59.752Z,0.400
2023-04-01T09:25:58.972Z,0.300
2023-04-01T09:26:59.721Z,0.400
2023-04-01T09:28:59.188Z,0.400
2023-04-01T09:29:59.356Z,0.700
2023-04-01T09:30:59.613Z,0.700
2023-04-01T09:31:58.828Z,0.600
2023-04-01T09:32:59.077Z,0.600
2023-04-01T09:33:59.511Z,0.400
2023-04-01T09:34:59.729Z,0.400
2023-04-01T09:35:58.932Z,0.400
2023-04-01T09:36:59.116Z,0.300
2023-04-01T09:37:59.248Z,0.300
2023-04-01T09:38:59.447Z,0.300
2023-04-01T09:39:59.612Z,0.300
2023-04-01T09:40:59.854Z,0.400
2023-04-01T09:41:59.020Z,0.300
2023-04-01T09:42:59.320Z,0.300
2023-04-01T09:43:59.468Z,0.400
2023-04-01T09:44:59.623Z,0.300
2023-04-01T09:46:59.533Z,0.200
2023-04-01T09:47:59.994Z,0.300
2023-04-01T09:49:59.391Z,0.400
2023-04-01T09:50:59.529Z,0.400
2023-04-01T09:51:59.620Z,0.600
2023-04-01T09:53:01.056Z,0.400
2023-04-01T09:53:59.393Z,0.600
2023-04-01T09:54:59.552Z,0.400
2023-04-01T09:55:59.671Z,0.400
2023-04-01T09:56:58.826Z,0.300
2023-04-01T09:57:59.123Z,0.600
2023-04-01T09:58:59.990Z,0.500
2023-04-01T09:59:59.162Z,0.400
2023-04-01T10:00:59.344Z,0.400
2023-04-01T10:01:59.704Z,0.400
2023-04-01T10:02:59.150Z,0.500
2023-04-01T10:03:59.592Z,0.400
2023-04-01T10:04:59.955Z,0.400
2023-04-01T10:05:59.265Z,0.400
2023-04-01T10:06:59.543Z,0.500
2023-04-01T10:07:59.763Z,0.400
2023-04-01T10:08:58.896Z,0.400
2023-04-01T10:09:59.015Z,0.300
2023-04-01T10:10:59.235Z,0.400
2023-04-01T10:11:59.459Z,0.400
2023-04-01T10:12:59.615Z,0.300
2023-04-01T10:13:58.889Z,0.400
2023-04-01T10:14:59.123Z,0.300
2023-04-01T10:15:59.340Z,0.200
2023-04-01T10:16:59.894Z,0.400
2023-04-01T10:18:59.448Z,0.300
2023-04-01T10:19:59.747Z,0.300
2023-04-01T10:20:58.938Z,0.400
2023-04-01T10:21:59.146Z,0.400
2023-04-01T10:22:59.380Z,0.400
2023-04-01T10:23:59.613Z,0.300
2023-04-01T10:24:59.837Z,0.500
2023-04-01T10:26:59.641Z,0.300
2023-04-01T10:27:59.917Z,0.300
2023-04-01T10:28:59.117Z,0.400
2023-04-01T10:29:59.396Z,0.500
2023-04-01T10:30:59.603Z,0.600
2023-04-01T10:32:00.020Z,0.500
2023-04-01T10:32:59.377Z,0.400
2023-04-01T10:33:59.761Z,0.400
2023-04-01T10:34:58.904Z,0.400
2023-04-01T10:35:59.206Z,1.200
2023-04-01T10:36:59.557Z,0.800
2023-04-01T10:37:59.751Z,0.500
2023-04-01T10:39:59.312Z,0.400
2023-04-01T10:40:59.460Z,1.000
2023-04-01T10:41:59.735Z,0.500
2023-04-01T10:42:58.899Z,0.500
2023-04-01T10:43:59.166Z,0.500
2023-04-01T10:44:59.442Z,0.600
2023-04-01T10:45:59.870Z,0.600
2023-04-01T10:46:59.305Z,0.800
2023-04-01T10:47:59.845Z,0.800
2023-04-01T10:48:59.239Z,0.500
2023-04-01T10:50:00.113Z,0.800
2023-04-01T10:50:59.298Z,0.700
2023-04-01T10:51:59.544Z,0.500
2023-04-01T10:52:59.748Z,0.500
2023-04-01T10:53:59.088Z,0.400
2023-04-01T10:54:59.359Z,0.500
2023-04-01T10:55:59.580Z,0.600
2023-04-01T10:56:58.862Z,0.500
2023-04-01T10:57:59.328Z,0.600
2023-04-01T10:58:59.533Z,0.700
2023-04-01T10:59:59.743Z,0.500
2023-04-01T11:00:59.016Z,0.700
2023-04-01T11:02:08.284Z,0.500
2023-04-01T11:03:00.335Z,0.600
2023-04-01T11:03:59.922Z,0.500
2023-04-01T11:04:59.324Z,0.700
2023-04-01T11:05:59.479Z,0.700
2023-04-01T11:06:59.765Z,0.500
2023-04-01T11:08:06.406Z,0.600
2023-04-01T11:09:59.358Z,0.500
2023-04-01T11:10:59.600Z,0.500
2023-04-01T11:11:59.838Z,0.700
2023-04-01T11:12:59.091Z,0.700
2023-04-01T11:13:59.364Z,0.800
2023-04-01T11:14:59.729Z,0.800
2023-04-01T11:15:59.082Z,0.600
2023-04-01T11:16:59.751Z,0.700
2023-04-01T11:17:59.201Z,0.600
2023-04-01T11:18:59.450Z,0.600
2023-04-01T11:19:59.717Z,0.900
2023-04-01T11:20:58.888Z,0.800
2023-04-01T11:21:59.931Z,0.800
2023-04-01T11:22:59.125Z,0.800
2023-04-01T11:24:09.125Z,0.700
2023-04-01T11:25:59.390Z,0.700
2023-04-01T11:26:59.778Z,0.900
2023-04-01T11:27:59.026Z,0.800
2023-04-01T11:28:59.235Z,0.600
2023-04-01T11:30:09.222Z,0.800
2023-04-01T11:30:59.418Z,0.700
2023-04-01T11:31:59.823Z,0.700
2023-04-01T11:32:59.116Z,0.700
2023-04-01T11:33:59.435Z,0.600
2023-04-01T11:34:59.597Z,0.700
2023-04-01T11:35:59.814Z,0.700
2023-04-01T11:36:59.156Z,0.800
2023-04-01T11:37:59.453Z,0.700
2023-04-01T11:38:59.599Z,0.700
2023-04-01T11:39:59.839Z,0.500
2023-04-01T11:40:58.928Z,0.700
2023-04-01T11:41:59.204Z,0.400
2023-04-01T11:42:59.433Z,0.500
2023-04-01T11:44:04.502Z,0.700
2023-04-01T11:44:59.645Z,0.500
2023-04-01T11:45:59.822Z,0.600
2023-04-01T11:46:59.272Z,0.500
2023-04-01T11:47:59.802Z,0.700
2023-04-01T11:49:01.575Z,0.400
2023-04-01T11:50:00.231Z,0.400
2023-04-01T11:52:58.940Z,0.800
2023-04-01T11:53:59.313Z,0.400
2023-04-01T11:54:59.496Z,0.600
2023-04-01T11:55:59.714Z,0.600
2023-04-01T11:56:59.111Z,0.500
2023-04-01T11:57:59.464Z,0.600
2023-04-01T11:58:59.619Z,0.300
2023-04-01T11:59:59.214Z,0.400
2023-04-01T12:00:59.373Z,0.500
2023-04-01T12:01:59.647Z,0.300
2023-04-01T12:02:59.375Z,0.300
2023-04-01T12:03:59.520Z,0.500
2023-04-01T12:04:59.564Z,0.700
2023-04-01T12:05:58.767Z,0.800
2023-04-01T12:06:58.952Z,0.700
2023-04-01T12:08:02.000Z,0.600
2023-04-01T12:08:59.207Z,0.500
2023-04-01T12:09:59.470Z,0.500
2023-04-01T12:10:59.591Z,0.800
2023-04-01T12:11:58.885Z,0.700
2023-04-01T12:13:08.897Z,0.600
2023-04-01T12:13:59.140Z,0.500
2023-04-01T12:14:59.268Z,0.800
2023-04-01T12:15:59.485Z,0.700
2023-04-01T12:17:00.106Z,0.300
2023-04-01T12:17:59.488Z,0.700
2023-04-01T12:18:59.904Z,0.600
2023-04-01T12:20:59.392Z,0.400
2023-04-01T12:21:59.606Z,0.400
2023-04-01T12:22:58.846Z,0.400
2023-04-01T12:23:58.956Z,0.400
2023-04-01T12:24:59.151Z,0.400
2023-04-01T12:25:59.307Z,0.400
2023-04-01T12:26:59.530Z,0.600
2023-04-01T12:27:59.792Z,0.400
2023-04-01T12:28:58.978Z,0.300
2023-04-01T12:29:59.179Z,0.600
2023-04-01T12:30:59.398Z,0.900
2023-04-01T12:31:59.782Z,0.600
2023-04-01T12:32:59.321Z,0.500
2023-04-01T12:33:59.619Z,0.700
2023-04-01T12:34:59.792Z,0.800
2023-04-01T12:36:59.191Z,1.100
2023-04-01T12:37:59.332Z,0.700
2023-04-01T12:38:59.674Z,0.800
2023-04-01T12:40:59.044Z,0.600
2023-04-01T12:41:59.400Z,0.900
2023-04-01T12:42:59.604Z,0.400
2023-04-01T12:43:59.793Z,0.400
2023-04-01T12:44:59.033Z,0.700
2023-04-01T12:45:59.313Z,0.500
2023-04-01T12:46:59.875Z,0.300
2023-04-01T12:47:59.261Z,0.600
2023-04-01T12:48:59.512Z,0.800
2023-04-01T12:49:59.741Z,0.500
2023-04-01T12:50:58.949Z,0.500
2023-04-01T12:51:59.100Z,0.600
2023-04-01T12:52:59.254Z,0.500
2023-04-01T12:53:59.397Z,0.600
2023-04-01T12:55:00.877Z,0.600
2023-04-01T12:55:59.300Z,0.600
2023-04-01T12:56:59.802Z,0.700
2023-04-01T12:57:59.103Z,0.500
2023-04-01T12:58:59.276Z,1.000
2023-04-01T12:59:59.580Z,0.700
2023-04-01T13:01:00.889Z,1.100
2023-04-01T13:01:59.388Z,0.500
2023-04-01T13:02:59.576Z,0.700
2023-04-01T13:03:59.073Z,0.900
2023-04-01T13:04:59.653Z,0.700
2023-04-01T13:05:58.796Z,0.700
2023-04-01T13:06:59.508Z,0.800
2023-04-01T13:07:59.633Z,0.800
2023-04-01T13:08:58.757Z,0.600
2023-04-01T13:10:03.362Z,0.600
2023-04-01T13:11:59.688Z,0.500
2023-04-01T13:12:59.038Z,0.600
2023-04-01T13:13:59.476Z,0.600
2023-04-01T13:15:06.194Z,0.600
2023-04-01T13:15:59.522Z,0.500
2023-04-01T13:16:59.788Z,0.500
2023-04-01T13:17:59.038Z,1.000
2023-04-01T13:18:59.284Z,1.000
2023-04-01T13:20:09.385Z,1.000
2023-04-01T13:20:59.567Z,0.900
2023-04-01T13:21:59.679Z,0.800
2023-04-01T13:22:58.931Z,0.600
2023-04-01T13:23:59.099Z,0.600
2023-04-01T13:24:59.240Z,0.500
2023-04-01T13:26:11.288Z,0.700
2023-04-01T13:28:00.312Z,0.600
2023-04-01T13:29:00.453Z,0.700
2023-04-01T13:30:00.658Z,0.600
2023-04-01T13:30:59.943Z,0.800
2023-04-01T13:32:00.494Z,0.600
2023-04-01T13:33:05.690Z,0.700
2023-04-01T13:33:59.928Z,0.500
2023-04-01T13:35:00.008Z,0.600
2023-04-01T13:36:00.373Z,0.700
2023-04-01T13:37:00.620Z,0.500
2023-04-01T13:38:00.809Z,0.500
2023-04-01T13:38:59.972Z,0.500
2023-04-01T13:40:00.128Z,0.500
2023-04-01T13:41:10.185Z,0.700